Terminal Aerodrome Forecast
Issued by NWS

Home | Current Version | Previous Version | Text Only | Print | Product List | Glossary On
Versions: 1 2 3 4 5 6 7 8 9 10 11 12 13 14 15 16 17 18 19 20
241
FTAK31 PAJN 262138 AAB
TAFASI
TAF AMD
PASI 262138Z 2622/2718 VRB05KT 6SM -RA BR BKN020 OVC035
      TEMPO 2622/2624 2SM -RA BR OVC020
     FM270000 16007KT P6SM VCSH SCT020 OVC035
     FM271400 VRB04KT 4SM -RA BR FEW005 BKN012 OVC020=

USA.gov is the U.S. government's official web portal to all federal, state and local government web resources and services.